Time;durP1;ratioP1;P1;durP2;ratioP2;P2;SDS_P1;SDS_P2;PMS_P1;PMS_P2;Temp;Humidity;BMP_temperature;BMP_pressure;BME280_temperature;BME280_humidity;BME280_pressure;Samples;Min_cycle;Max_cycle;Signal;HPM_P1;HPM_P2
2022/12/29 00:01:52;;;;;;;1999.90;999.90;;;;;;;4.37;100.00;98431.91;5094658;28;20043;-82
2022/12/29 00:04:18;;;;;;;1999.90;999.90;;;;;;;4.46;100.00;98425.84;5098114;28;20431;-84
2022/12/29 00:06:43;;;;;;;1999.90;999.90;;;;;;;4.41;100.00;98408.69;5080465;28;20045;-82
2022/12/29 00:09:12;;;;;;;1999.90;999.90;;;;;;;4.35;100.00;98407.78;5075263;28;20059;-83
2022/12/29 00:11:37;;;;;;;1999.90;999.90;;;;;;;4.36;100.00;98422.94;5081102;28;20078;-87
2022/12/29 00:16:46;;;;;;;1999.90;999.90;;;;;;;4.33;100.00;98408.03;5092792;28;20039;-80
2022/12/29 00:35:55;;;;;;;1999.90;999.90;;;;;;;3.72;100.00;98384.44;5082344;28;20108;-82
2022/12/29 00:44:09;;;;;;;1999.90;999.90;;;;;;;3.45;100.00;98379.78;5102121;28;20346;-78
2022/12/29 00:46:38;;;;;;;;;;;;;;;3.41;100.00;98389.47;5076901;28;20046;-79
2022/12/29 00:51:53;;;;;;;1999.90;999.90;;;;;;;3.21;100.00;98393.38;5083360;28;20035;-83
2022/12/29 00:54:19;;;;;;;1999.90;999.90;;;;;;;3.16;100.00;98371.63;5077280;28;20051;-86
2022/12/29 00:56:48;;;;;;;1999.90;999.90;;;;;;;3.26;100.00;98378.34;5081658;28;20024;-83
2022/12/29 00:59:14;;;;;;;1999.90;999.90;;;;;;;3.25;100.00;98382.91;5081465;28;20362;-83
2022/12/29 01:01:40;;;;;;;1999.90;999.90;;;;;;;3.16;100.00;98371.63;5080559;28;20035;-83
2022/12/29 01:04:06;;;;;;;1999.90;999.90;;;;;;;3.18;100.00;98383.03;5080057;28;20086;-86
2022/12/29 01:06:32;;;;;;;1999.90;999.90;;;;;;;3.16;100.00;98384.34;5083252;28;20060;-83
2022/12/29 01:11:42;;;;;;;1999.90;999.90;;;;;;;3.02;100.00;98386.47;5076616;28;20039;-82
2022/12/29 01:14:07;;;;;;;1999.90;999.90;;;;;;;3.05;100.00;98387.84;5077702;28;20036;-82
2022/12/29 01:16:33;;;;;;;1999.90;999.90;;;;;;;3.07;100.00;98383.84;5079563;28;20020;-81
2022/12/29 01:18:59;;;;;;;1999.90;999.90;;;;;;;2.93;100.00;98377.06;5076318;28;20035;-77
2022/12/29 01:21:24;;;;;;;1999.90;999.90;;;;;;;2.87;100.00;98386.13;5081208;28;20020;-81
2022/12/29 01:23:50;;;;;;;1999.90;999.90;;;;;;;2.92;100.00;98371.88;5079701;28;20084;-82
2022/12/29 01:26:17;;;;;;;1999.90;999.90;;;;;;;2.90;100.00;98390.22;5078511;28;20024;-85
2022/12/29 01:28:43;;;;;;;1999.90;999.90;;;;;;;2.95;100.00;98380.34;5078061;28;20087;-84
2022/12/29 01:31:09;;;;;;;1999.90;999.90;;;;;;;2.97;100.00;98377.44;5078118;28;20485;-86
2022/12/29 01:33:35;;;;;;;1999.90;999.90;;;;;;;2.96;100.00;98373.91;5113022;28;20023;-83
2022/12/29 01:36:05;;;;;;;1999.90;999.90;;;;;;;2.96;100.00;98371.19;5074603;28;20533;-80
2022/12/29 01:38:32;;;;;;;1999.90;999.90;;;;;;;3.00;100.00;98364.28;5075838;28;20029;-82
2022/12/29 01:40:57;;;;;;;1999.90;999.90;;;;;;;2.94;100.00;98373.31;5078925;28;20033;-82
2022/12/29 01:43:39;;;;;;;1999.90;999.90;;;;;;;2.99;100.00;98368.03;5079057;28;20491;-84
2022/12/29 01:46:27;;;;;;;1999.90;999.90;;;;;;;2.96;100.00;98376.59;5078750;28;20021;-82
2022/12/29 01:49:16;;;;;;;1999.90;999.90;;;;;;;3.01;100.00;98359.66;5085651;28;20040;-82
2022/12/29 01:51:50;;;;;;;1999.90;999.90;;;;;;;3.02;100.00;98364.00;5087406;28;20021;-85
2022/12/29 01:54:26;;;;;;;1999.90;999.90;;;;;;;2.99;100.00;98367.19;5083868;28;20059;-81
2022/12/29 01:56:54;;;;;;;1999.90;999.90;;;;;;;3.00;100.00;98361.56;5074643;28;20029;-79
2022/12/29 01:59:25;;;;;;;1999.90;999.90;;;;;;;2.93;100.00;98355.47;5057214;28;20037;-78
2022/12/29 02:01:50;;;;;;;1999.90;999.90;;;;;;;2.82;100.00;98356.28;5053182;28;20171;-75
2022/12/29 02:04:16;;;;;;;1999.90;999.90;;;;;;;2.87;100.00;98361.81;5051764;28;20025;-79
2022/12/29 02:06:53;;;;;;;1999.90;999.90;;;;;;;2.82;100.00;98355.47;5056865;28;20090;-79
2022/12/29 02:09:19;;;;;;;1999.90;999.90;;;;;;;2.84;100.00;98361.47;5057689;28;20035;-77
2022/12/29 02:11:44;;;;;;;1999.90;999.90;;;;;;;2.77;100.00;98344.53;5056597;28;20440;-76
2022/12/29 02:14:11;;;;;;;1999.90;999.90;;;;;;;2.82;100.00;98350.88;5050650;28;20044;-76
2022/12/29 02:17:04;;;;;;;1999.90;999.90;;;;;;;2.80;100.00;98352.16;5050852;28;20029;-76
2022/12/29 02:19:41;;;;;;;1999.90;999.90;;;;;;;2.89;100.00;98343.47;5051770;28;20027;-74
2022/12/29 02:22:25;;;;;;;1999.90;999.90;;;;;;;2.79;100.00;98345.16;5083316;28;20041;-75
2022/12/29 02:25:09;;;;;;;1999.90;999.90;;;;;;;2.77;100.00;98339.13;5050319;28;20033;-75
2022/12/29 02:27:56;;;;;;;1999.90;999.90;;;;;;;2.68;100.00;98339.50;5082656;28;20033;-75
2022/12/29 02:30:43;;;;;;;1999.90;999.90;;;;;;;2.70;100.00;98336.56;5050694;28;20426;-74
2022/12/29 02:33:27;;;;;;;1999.90;999.90;;;;;;;2.66;100.00;98348.91;5050827;28;20470;-75
2022/12/29 02:36:09;;;;;;;1999.90;999.90;;;;;;;2.58;100.00;98336.56;5050038;28;20773;-74
2022/12/29 02:39:10;;;;;;;1999.90;999.90;;;;;;;2.55;100.00;98337.03;5082404;28;20041;-75
2022/12/29 02:42:03;;;;;;;1999.90;999.90;;;;;;;2.60;100.00;98330.94;5048800;28;20056;-76
2022/12/29 02:44:41;;;;;;;1999.90;999.90;;;;;;;2.42;100.00;98339.13;5050625;28;20018;-75
2022/12/29 02:47:26;;;;;;;1999.90;999.90;;;;;;;2.51;100.00;98332.31;5048800;28;20378;-74
2022/12/29 02:50:01;;;;;;;1999.90;999.90;;;;;;;2.47;100.00;98333.88;5082289;28;20120;-75
2022/12/29 02:52:29;;;;;;;;;;;;;;;2.49;100.00;98331.75;5051310;28;20047;-75
2022/12/29 02:54:55;;;;;;;1999.90;999.90;;;;;;;2.34;100.00;98317.91;5056079;28;19908;-75
2022/12/29 02:57:20;;;;;;;1999.90;999.90;;;;;;;2.47;100.00;98325.78;5084531;28;20099;-74
2022/12/29 02:59:48;;;;;;;1999.90;999.90;;;;;;;2.36;100.00;98329.28;5050128;28;20040;-74
2022/12/29 03:02:44;;;;;;;1999.90;999.90;;;;;;;2.44;100.00;98324.38;5050000;28;20025;-74
2022/12/29 03:05:31;;;;;;;1999.90;999.90;;;;;;;2.54;100.00;98323.75;5085444;28;20029;-74
2022/12/29 03:08:22;;;;;;;1999.90;999.90;;;;;;;2.55;100.00;98328.13;5053472;28;20110;-75
2022/12/29 03:10:53;;;;;;;1999.90;999.90;;;;;;;2.55;100.00;98320.84;5085641;28;20474;-75
2022/12/29 03:16:40;;;;;;;1999.90;999.90;;;;;;;2.64;100.00;98299.69;5053777;28;20087;-75
2022/12/29 03:19:14;;;;;;;1999.90;999.90;;;;;;;2.70;100.00;98304.16;5053384;28;20502;-75
2022/12/29 03:24:36;;;;;;;1999.90;999.90;;;;;;;2.43;100.00;98287.63;5053479;28;20444;-75
2022/12/29 03:27:06;;;;;;;1999.90;999.90;;;;;;;2.32;100.00;98268.75;5053420;28;20039;-77
2022/12/29 03:29:37;;;;;;;1999.90;999.90;;;;;;;2.25;100.00;98292.31;5053212;28;20024;-74
2022/12/29 03:32:04;;;;;;;1999.90;999.90;;;;;;;2.21;100.00;98296.53;5053050;28;20033;-74
2022/12/29 03:34:31;;;;;;;1999.90;999.90;;;;;;;2.28;100.00;98295.38;5053177;28;20547;-74
2022/12/29 03:37:04;;;;;;;1999.90;999.90;;;;;;;2.35;100.00;98303.38;5055978;28;20025;-75
2022/12/29 03:39:30;;;;;;;1999.90;999.90;;;;;;;2.36;100.00;98291.50;5061686;28;20027;-76
2022/12/29 03:42:01;;;;;;;1999.90;999.90;;;;;;;2.44;100.00;98299.25;5061362;28;20033;-75
2022/12/29 03:44:36;;;;;;;1999.90;999.90;;;;;;;2.51;100.00;98299.94;5057446;28;20101;-74
2022/12/29 03:47:02;;;;;;;1999.90;999.90;;;;;;;2.64;100.00;98299.69;5053151;28;20079;-74
2022/12/29 03:49:27;;;;;;;1999.90;999.90;;;;;;;2.69;100.00;98297.13;5052841;28;20592;-76
2022/12/29 03:51:53;;;;;;;1999.90;999.90;;;;;;;2.71;100.00;98289.59;5053160;28;20039;-74
2022/12/29 03:54:18;;;;;;;1999.90;999.90;;;;;;;2.66;100.00;98278.69;5052745;28;20151;-75
2022/12/29 03:56:43;;;;;;;1999.90;999.90;;;;;;;2.63;100.00;98274.56;5051583;28;20388;-76
2022/12/29 03:59:08;;;;;;;1999.90;999.90;;;;;;;2.67;100.00;98273.06;5051295;28;20036;-74
2022/12/29 04:01:34;;;;;;;1999.90;999.90;;;;;;;2.55;100.00;98266.03;5051977;28;20052;-77
2022/12/29 04:03:59;;;;;;;1999.90;999.90;;;;;;;2.46;100.00;98270.97;5068243;28;20456;-76
2022/12/29 04:06:24;;;;;;;1999.90;999.90;;;;;;;2.45;100.00;98268.50;5072351;28;20119;-76
2022/12/29 04:08:50;;;;;;;1999.90;999.90;;;;;;;2.45;100.00;98285.50;5072646;28;20499;-74
2022/12/29 04:11:15;;;;;;;1999.90;999.90;;;;;;;2.41;100.00;98273.53;5072559;28;20047;-75
2022/12/29 04:13:40;;;;;;;1999.90;999.90;;;;;;;2.38;100.00;98267.81;5072268;28;20022;-76
2022/12/29 04:16:07;;;;;;;1999.90;999.90;;;;;;;2.35;100.00;98284.47;5071329;28;20017;-76
2022/12/29 04:18:32;;;;;;;1999.90;999.90;;;;;;;2.30;100.00;98284.34;5073774;28;20099;-76
2022/12/29 04:21:00;;;;;;;1999.90;999.90;;;;;;;2.37;100.00;98298.53;5078791;28;20032;-77
2022/12/29 04:23:28;;;;;;;1999.90;999.90;;;;;;;2.45;100.00;98290.09;5073090;28;20428;-75
2022/12/29 04:25:53;;;;;;;1999.90;999.90;;;;;;;2.41;100.00;98294.31;5072129;28;20025;-75
2022/12/29 04:28:18;;;;;;;1999.90;999.90;;;;;;;2.40;100.00;98292.66;5070807;28;20031;-75
2022/12/29 04:30:44;;;;;;;1999.90;999.90;;;;;;;2.36;100.00;98280.69;5070785;28;20032;-75
2022/12/29 04:33:10;;;;;;;1999.90;999.90;;;;;;;2.32;100.00;98290.34;5072125;28;20020;-75
2022/12/29 04:35:35;;;;;;;1999.90;999.90;;;;;;;2.31;100.00;98291.38;5070895;28;20112;-75
2022/12/29 04:38:01;;;;;;;1999.90;999.90;;;;;;;2.19;100.00;98299.47;5071859;28;20123;-75
2022/12/29 04:40:27;;;;;;;1999.90;999.90;;;;;;;2.25;100.00;98297.72;5072195;28;20025;-75
2022/12/29 04:42:52;;;;;;;1999.90;999.90;;;;;;;2.43;100.00;98301.13;5075876;28;20028;-79
2022/12/29 04:45:18;;;;;;;1999.90;999.90;;;;;;;2.45;100.00;98298.19;5074314;28;20039;-76
2022/12/29 04:47:43;;;;;;;1999.90;999.90;;;;;;;2.54;100.00;98311.09;5071659;28;20480;-74
2022/12/29 04:50:08;;;;;;;1999.90;999.90;;;;;;;2.67;100.00;98301.94;5071386;28;20051;-75
2022/12/29 04:52:34;;;;;;;1999.90;999.90;;;;;;;2.68;100.00;98284.69;5072124;28;20029;-75
2022/12/29 04:54:59;;;;;;;1999.90;999.90;;;;;;;2.75;100.00;98296.19;5071464;28;20461;-76
2022/12/29 04:57:25;;;;;;;1999.90;999.90;;;;;;;2.87;100.00;98277.25;5067478;28;20028;-74
2022/12/29 04:59:50;;;;;;;1999.90;999.90;;;;;;;2.93;100.00;98293.34;5061929;28;20390;-76
2022/12/29 05:02:17;;;;;;;1999.90;999.90;;;;;;;3.03;100.00;98293.53;5050980;28;20492;-76
2022/12/29 05:04:42;;;;;;;1999.90;999.90;;;;;;;2.91;100.00;98286.53;5063396;28;20025;-75
2022/12/29 05:07:08;;;;;;;1999.90;999.90;;;;;;;2.84;100.00;98292.06;5070868;28;20055;-75
2022/12/29 05:09:33;;;;;;;1999.90;999.90;;;;;;;2.86;100.00;98298.03;5070329;28;20029;-76
2022/12/29 05:12:00;;;;;;;1999.90;999.90;;;;;;;2.79;100.00;98305.44;5069760;28;20083;-75
2022/12/29 05:14:25;;;;;;;1999.90;999.90;;;;;;;2.76;100.00;98313.22;5070665;28;20052;-75
2022/12/29 05:16:50;;;;;;;1999.90;999.90;;;;;;;2.80;100.00;98309.78;5071314;28;20059;-76
2022/12/29 05:19:16;;;;;;;1999.90;999.90;;;;;;;2.81;100.00;98311.44;5069046;28;20028;-76
2022/12/29 05:21:42;;;;;;;1999.90;999.90;;;;;;;2.86;100.00;98314.25;5070152;28;20473;-74
2022/12/29 05:24:07;;;;;;;1999.90;999.90;;;;;;;2.94;100.00;98318.47;5069859;28;20027;-76
2022/12/29 05:26:32;;;;;;;1999.90;999.90;;;;;;;2.96;100.00;98313.63;5069903;28;20428;-76
2022/12/29 05:28:58;;;;;;;1999.90;999.90;;;;;;;2.96;100.00;98330.66;5070724;28;20571;-76
2022/12/29 05:31:23;;;;;;;1999.90;999.90;;;;;;;2.88;100.00;98320.22;5069948;28;20389;-75
2022/12/29 05:33:48;;;;;;;1999.90;999.90;;;;;;;2.94;100.00;98313.06;5070772;28;22032;-75
2022/12/29 05:36:14;;;;;;;1999.90;999.90;;;;;;;3.07;100.00;98329.81;5070632;28;20064;-76
2022/12/29 05:38:39;;;;;;;1999.90;999.90;;;;;;;3.13;100.00;98326.16;5069427;28;20031;-75
2022/12/29 05:41:05;;;;;;;1999.90;999.90;;;;;;;3.20;100.00;98334.97;5069099;28;20112;-74
2022/12/29 05:43:30;;;;;;;1999.90;999.90;;;;;;;3.26;100.00;98340.50;5070559;28;20127;-74
2022/12/29 05:45:56;;;;;;;1999.90;999.90;;;;;;;3.27;100.00;98323.19;5070195;28;20078;-75
2022/12/29 05:48:22;;;;;;;1999.90;999.90;;;;;;;3.27;100.00;98320.50;5069245;28;20028;-74
2022/12/29 05:50:51;;;;;;;1999.90;999.90;;;;;;;3.43;100.00;98336.78;5070504;28;20047;-75
2022/12/29 05:53:16;;;;;;;1999.90;999.90;;;;;;;3.53;100.00;98345.09;5069178;28;20035;-76
2022/12/29 05:55:43;;;;;;;1999.90;999.90;;;;;;;3.54;100.00;98343.22;5070396;28;20021;-76
2022/12/29 05:58:08;;;;;;;1999.90;999.90;;;;;;;3.61;100.00;98352.00;5070468;28;20113;-74
2022/12/29 06:00:33;;;;;;;1999.90;999.90;;;;;;;3.65;100.00;98355.88;5070655;28;20428;-76
2022/12/29 06:02:59;;;;;;;1999.90;999.90;;;;;;;3.60;100.00;98344.97;5070684;28;20020;-76
2022/12/29 06:05:24;;;;;;;1999.90;999.90;;;;;;;3.59;100.00;98351.44;5070653;28;20376;-74
2022/12/29 06:07:49;;;;;;;1999.90;999.90;;;;;;;3.47;100.00;98335.25;5070723;28;20595;-75
2022/12/29 06:10:15;;;;;;;1999.90;999.90;;;;;;;3.52;100.00;98340.75;5069068;28;20037;-77
2022/12/29 06:12:40;;;;;;;1999.90;999.90;;;;;;;3.40;100.00;98337.25;5069445;28;20448;-76
2022/12/29 06:15:06;;;;;;;1999.90;999.90;;;;;;;3.47;100.00;98332.56;5070747;28;20009;-76
2022/12/29 06:17:32;;;;;;;1999.90;999.90;;;;;;;3.49;100.00;98340.41;5070504;28;20127;-75
2022/12/29 06:19:58;;;;;;;1999.90;999.90;;;;;;;3.43;100.00;98341.38;5070575;28;20116;-75
2022/12/29 06:22:23;;;;;;;1999.90;999.90;;;;;;;3.54;100.00;98346.72;5070826;28;20119;-76
2022/12/29 06:24:49;;;;;;;1999.90;999.90;;;;;;;3.57;100.00;98348.16;5070530;28;20132;-76
2022/12/29 06:27:14;;;;;;;1999.90;999.90;;;;;;;3.55;100.00;98340.25;5072099;28;20763;-77
2022/12/29 06:29:40;;;;;;;1999.90;999.90;;;;;;;3.65;100.00;98351.28;5075996;28;20036;-77
2022/12/29 06:32:06;;;;;;;1999.90;999.90;;;;;;;3.69;100.00;98349.75;5077042;28;20124;-75
2022/12/29 06:34:31;;;;;;;1999.90;999.90;;;;;;;3.75;100.00;98340.66;5072175;28;20423;-76
2022/12/29 06:36:56;;;;;;;1999.90;999.90;;;;;;;3.83;100.00;98347.56;5070449;28;20486;-76
2022/12/29 06:39:22;;;;;;;1999.90;999.90;;;;;;;3.89;100.00;98348.47;5072604;28;20033;-76
2022/12/29 06:41:47;;;;;;;1999.90;999.90;;;;;;;3.85;100.00;98348.16;5072875;28;20048;-77
2022/12/29 06:44:12;;;;;;;1999.90;999.90;;;;;;;3.91;100.00;98344.47;5074070;28;20032;-75
2022/12/29 06:46:38;;;;;;;1999.90;999.90;;;;;;;3.95;100.00;98345.59;5073948;28;20429;-76
2022/12/29 06:49:03;;;;;;;1999.90;999.90;;;;;;;3.95;100.00;98351.03;5074139;28;20043;-74
2022/12/29 06:51:28;;;;;;;1999.90;999.90;;;;;;;3.89;100.00;98346.59;5074297;28;20537;-78
2022/12/29 06:53:54;;;;;;;1999.90;999.90;;;;;;;3.86;100.00;98348.94;5072783;28;20029;-79
2022/12/29 06:56:19;;;;;;;1999.90;999.90;;;;;;;3.97;100.00;98339.97;5073686;28;20159;-78
2022/12/29 06:58:44;;;;;;;1999.90;999.90;;;;;;;4.07;100.00;98343.66;5073874;28;20029;-79
2022/12/29 07:01:10;;;;;;;1999.90;999.90;;;;;;;4.22;100.00;98349.38;5059271;28;20078;-77
2022/12/29 07:03:35;;;;;;;1999.90;999.90;;;;;;;4.38;100.00;98345.03;5073356;28;20032;-77
2022/12/29 07:06:00;;;;;;;1999.90;999.90;;;;;;;4.43;100.00;98352.38;5063045;28;20497;-79
2022/12/29 07:08:26;;;;;;;1999.90;999.90;;;;;;;4.43;100.00;98353.22;5053371;28;20486;-79
2022/12/29 07:10:51;;;;;;;1999.90;999.90;;;;;;;4.32;100.00;98356.84;5085591;28;20036;-77
2022/12/29 07:13:16;;;;;;;1999.90;999.90;;;;;;;4.27;100.00;98352.13;5053474;28;20419;-77
2022/12/29 07:15:42;;;;;;;1999.90;999.90;;;;;;;4.22;100.00;98352.06;5053035;28;20166;-77
2022/12/29 07:18:07;;;;;;;1999.90;999.90;;;;;;;4.31;100.00;98345.19;5094425;28;20108;-77
2022/12/29 07:20:32;;;;;;;1999.90;999.90;;;;;;;4.32;100.00;98337.88;5072733;28;20036;-77
2022/12/29 07:22:58;;;;;;;1999.90;999.90;;;;;;;4.49;100.00;98354.09;5073284;28;20113;-77
2022/12/29 07:25:23;;;;;;;1999.90;999.90;;;;;;;4.57;100.00;98356.44;5071455;28;20055;-77
2022/12/29 07:27:49;;;;;;;1999.90;999.90;;;;;;;4.75;100.00;98356.16;5072837;28;20529;-77
2022/12/29 07:30:15;;;;;;;1999.90;999.90;;;;;;;4.72;100.00;98356.66;5072688;28;20033;-78
2022/12/29 07:32:40;;;;;;;1999.90;999.90;;;;;;;4.73;100.00;98336.63;5072669;28;20124;-77
2022/12/29 07:35:06;;;;;;;1999.90;999.90;;;;;;;4.83;100.00;98355.72;5071347;28;20130;-79
2022/12/29 07:37:31;;;;;;;1999.90;999.90;;;;;;;4.55;100.00;98362.06;5071582;28;20029;-77
2022/12/29 07:39:57;;;;;;;1999.90;999.90;;;;;;;4.22;100.00;98373.72;5072355;28;20394;-77
2022/12/29 07:42:22;;;;;;;1999.90;999.90;;;;;;;4.22;100.00;98368.31;5072527;28;20060;-77
2022/12/29 07:44:47;;;;;;;1999.90;999.90;;;;;;;4.20;100.00;98369.59;5072762;28;20090;-78
2022/12/29 07:47:13;;;;;;;1999.90;999.90;;;;;;;4.17;100.00;98370.09;5071310;28;20024;-79
2022/12/29 07:49:38;;;;;;;1999.90;999.90;;;;;;;4.22;100.00;98373.72;5071898;28;20031;-77
2022/12/29 07:52:03;;;;;;;1999.90;999.90;;;;;;;4.37;100.00;98364.22;5072693;28;20031;-77
2022/12/29 07:54:29;;;;;;;1999.90;999.90;;;;;;;4.56;100.00;98368.31;5064220;28;20119;-79
2022/12/29 07:56:54;;;;;;;1999.90;999.90;;;;;;;4.65;100.00;98375.78;5052605;28;20032;-78
2022/12/29 07:59:20;;;;;;;1999.90;999.90;;;;;;;4.75;100.00;98375.94;5055389;28;20476;-77
2022/12/29 08:01:45;;;;;;;1999.90;999.90;;;;;;;4.82;100.00;98375.78;5072526;28;20130;-76
2022/12/29 08:04:11;;;;;;;1999.90;999.90;;;;;;;4.99;100.00;98373.84;5070984;28;20021;-77
2022/12/29 08:06:37;;;;;;;1999.90;999.90;;;;;;;5.11;100.00;98380.00;5071658;28;20575;-76
2022/12/29 08:09:03;;;;;;;1999.90;999.90;;;;;;;5.17;100.00;98373.56;5071143;28;20159;-78
2022/12/29 08:11:28;;;;;;;1999.90;999.90;;;;;;;5.25;100.00;98378.56;5071962;28;20115;-76
2022/12/29 08:13:54;;;;;;;1999.90;999.90;;;;;;;5.33;100.00;98380.84;5072398;28;20024;-76
2022/12/29 08:16:19;;;;;;;1999.90;999.90;;;;;;;5.45;100.00;98369.06;5072065;28;20017;-78
2022/12/29 08:18:44;;;;;;;1999.90;999.90;;;;;;;5.55;100.00;98378.13;5074743;28;20028;-78
2022/12/29 08:21:10;;;;;;;1999.90;999.90;;;;;;;5.76;100.00;98379.22;5075204;28;20480;-80
2022/12/29 08:23:36;;;;;;;1999.90;999.90;;;;;;;5.65;100.00;98375.56;5072361;28;20029;-77
2022/12/29 08:26:04;;;;;;;1999.90;999.90;;;;;;;5.59;100.00;98373.03;5070499;28;20517;-80
2022/12/29 08:28:30;;;;;;;1999.90;999.90;;;;;;;5.45;100.00;98377.19;5071566;28;20416;-79
2022/12/29 08:31:00;;;;;;;1999.90;999.90;;;;;;;5.57;100.00;98386.03;5071853;28;20032;-78
2022/12/29 08:33:26;;;;;;;1999.90;999.90;;;;;;;5.63;100.00;98398.59;5071658;28;20046;-79
2022/12/29 08:35:51;;;;;;;1999.90;999.90;;;;;;;5.57;100.00;98388.75;5071680;28;20481;-78
2022/12/29 08:38:17;;;;;;;1999.90;999.90;;;;;;;5.47;100.00;98386.72;5073377;28;20037;-77
2022/12/29 08:40:43;;;;;;;1999.90;999.90;;;;;;;5.33;100.00;98388.97;5073823;28;20415;-76
2022/12/29 08:43:08;;;;;;;1999.90;999.90;;;;;;;5.27;100.00;98389.97;5071597;28;20504;-78
2022/12/29 08:45:34;;;;;;;1999.90;999.90;;;;;;;5.35;100.00;98395.00;5071288;28;20493;-76
2022/12/29 08:47:59;;;;;;;1999.90;999.90;;;;;;;5.29;100.00;98395.97;5071146;28;20025;-76
2022/12/29 08:50:25;;;;;;;1999.90;999.90;;;;;;;5.34;100.00;98397.94;5071398;28;20016;-78
2022/12/29 08:52:50;;;;;;;1999.90;999.90;;;;;;;5.37;100.00;98397.44;5071937;28;20029;-77
2022/12/29 08:55:15;;;;;;;1999.90;999.90;;;;;;;5.43;100.00;98398.31;5070076;28;20032;-77
2022/12/29 08:57:41;;;;;;;1999.90;999.90;;;;;;;5.55;100.00;98399.00;5071250;28;20472;-78
2022/12/29 09:00:07;;;;;;;1999.90;999.90;;;;;;;5.54;100.00;98394.69;5071363;28;20031;-79
2022/12/29 09:02:32;;;;;;;1999.90;999.90;;;;;;;5.49;100.00;98402.72;5070573;28;20428;-78
2022/12/29 09:04:58;;;;;;;1999.90;999.90;;;;;;;5.48;100.00;98401.94;5071311;28;20028;-78
2022/12/29 09:07:24;;;;;;;1999.90;999.90;;;;;;;5.58;100.00;98401.22;5070835;28;20041;-76
2022/12/29 09:09:49;;;;;;;1999.90;999.90;;;;;;;5.65;100.00;98399.16;5071266;28;20025;-76
2022/12/29 09:12:16;;;;;;;1999.90;999.90;;;;;;;5.78;100.00;98398.78;5070738;28;20114;-78
2022/12/29 09:14:42;;;;;;;1999.90;999.90;;;;;;;5.86;100.00;98401.88;5071162;28;20478;-78
2022/12/29 09:19:52;;;;;;;1999.90;999.90;;;;;;;5.92;100.00;98406.28;5071110;28;20492;-78
2022/12/29 09:22:17;;;;;;;1999.90;999.90;;;;;;;5.94;100.00;98403.34;5071454;28;20060;-77
2022/12/29 09:24:43;;;;;;;1999.90;999.90;;;;;;;6.13;100.00;98410.06;5070547;28;20028;-77
2022/12/29 09:27:08;;;;;;;1999.90;999.90;;;;;;;6.18;100.00;98410.09;5071067;28;20021;-78
2022/12/29 09:29:33;;;;;;;1999.90;999.90;;;;;;;6.07;100.00;98402.94;5071440;28;20032;-78
2022/12/29 09:31:59;;;;;;;1999.90;999.90;;;;;;;5.95;100.00;98379.72;5074781;28;20060;-79
2022/12/29 09:34:24;;;;;;;1999.90;999.90;;;;;;;6.07;100.00;98402.13;5070991;28;20115;-78
2022/12/29 09:36:49;;;;;;;1999.90;999.90;;;;;;;6.10;100.00;98402.44;5069241;28;20016;-78
2022/12/29 09:39:15;;;;;;;1999.90;999.90;;;;;;;6.13;100.00;98401.91;5070813;28;20039;-78
2022/12/29 09:42:01;;;;;;;1999.90;999.90;;;;;;;5.98;100.00;98401.75;5071410;28;20025;-77
2022/12/29 09:44:52;;;;;;;1999.90;999.90;;;;;;;6.12;100.00;98405.69;5070616;28;20107;-77
2022/12/29 09:47:20;;;;;;;1999.90;999.90;;;;;;;6.28;100.00;98396.63;5070722;28;20028;-77
2022/12/29 09:49:54;;;;;;;1999.90;999.90;;;;;;;6.38;100.00;98399.47;5071639;28;20036;-82
2022/12/29 09:52:29;;;;;;;1999.90;999.90;;;;;;;6.45;100.00;98389.19;5070557;28;20025;-80
2022/12/29 09:55:04;;;;;;;1999.90;999.90;;;;;;;6.61;100.00;98402.94;5070908;28;20039;-78
2022/12/29 09:57:40;;;;;;;1999.90;999.90;;;;;;;6.67;100.00;98396.44;5070496;28;20051;-76
2022/12/29 10:00:13;;;;;;;1999.90;999.90;;;;;;;6.63;100.00;98396.16;5070442;28;20104;-77
2022/12/29 10:03:13;;;;;;;1999.90;999.90;;;;;;;6.71;100.00;98398.38;5069999;28;20021;-80
2022/12/29 10:05:50;;;;;;;1999.90;999.90;;;;;;;6.67;100.00;98386.38;5073830;28;20044;-76
2022/12/29 10:08:57;;;;;;;1999.90;999.90;;;;;;;6.73;100.00;98392.69;5078312;28;20492;-77
2022/12/29 10:11:25;;;;;;;1999.90;999.90;;;;;;;6.66;100.00;98389.38;5076555;28;20156;-78
2022/12/29 10:14:19;;;;;;;1999.90;999.90;;;;;;;6.66;100.00;98390.19;5075948;28;20485;-78
2022/12/29 10:17:32;;;;;;;1999.90;999.90;;;;;;;6.82;100.00;98386.53;5081181;28;20037;-80
2022/12/29 10:20:28;;;;;;;1999.90;999.90;;;;;;;6.82;100.00;98385.69;5055066;28;20103;-77
2022/12/29 10:23:31;;;;;;;1999.90;999.90;;;;;;;6.81;100.00;98386.75;5054808;28;20025;-79
2022/12/29 10:25:58;;;;;;;1999.90;999.90;;;;;;;6.88;100.00;98381.94;5076659;28;20048;-77
2022/12/29 10:28:38;;;;;;;1999.90;999.90;;;;;;;6.77;100.00;98382.91;5075760;28;20477;-77
2022/12/29 10:31:12;;;;;;;1999.90;999.90;;;;;;;6.71;100.00;98368.47;5076775;28;20500;-77
2022/12/29 10:33:41;;;;;;;1999.90;999.90;;;;;;;6.84;100.00;98375.38;5076957;28;20062;-77
2022/12/29 10:36:42;;;;;;;1999.90;999.90;;;;;;;6.78;100.00;98382.69;5075334;28;20490;-78
2022/12/29 10:39:19;;;;;;;1999.90;999.90;;;;;;;6.69;100.00;98391.56;5074764;28;20621;-76
2022/12/29 10:41:53;;;;;;;1999.90;999.90;;;;;;;6.56;100.00;98390.09;5076897;28;20046;-77
2022/12/29 10:44:20;;;;;;;1999.90;999.90;;;;;;;6.57;100.00;98380.88;5076622;28;20067;-79
2022/12/29 10:46:55;;;;;;;1999.90;999.90;;;;;;;6.53;100.00;98381.63;5078787;28;20020;-77
2022/12/29 10:49:21;;;;;;;1999.90;999.90;;;;;;;6.55;100.00;98365.91;5078061;28;20382;-76
2022/12/29 10:51:51;;;;;;;1999.90;999.90;;;;;;;6.61;100.00;98370.31;5075295;28;20150;-78
2022/12/29 10:54:32;;;;;;;1999.90;999.90;;;;;;;6.82;100.00;98374.81;5074687;28;20077;-79
2022/12/29 10:57:11;;;;;;;1999.90;999.90;;;;;;;7.08;100.00;98375.81;5076800;28;20016;-76
2022/12/29 10:59:37;;;;;;;1999.90;999.90;;;;;;;7.09;100.00;98367.38;5076188;28;20056;-76
2022/12/29 11:02:11;;;;;;;1999.90;999.90;;;;;;;7.25;100.00;98366.41;5075390;28;20101;-76
2022/12/29 11:05:07;;;;;;;1999.90;999.90;;;;;;;7.51;100.00;98351.03;5077010;28;20033;-79
2022/12/29 11:07:32;;;;;;;1999.90;999.90;;;;;;;7.60;100.00;98359.47;5078846;28;20134;-80
2022/12/29 11:10:35;;;;;;;1999.90;999.90;;;;;;;7.60;100.00;98349.41;5076247;28;20054;-81
2022/12/29 11:13:13;;;;;;;1999.90;999.90;;;;;;;7.76;100.00;98342.13;5077302;28;20111;-79
2022/12/29 11:15:44;;;;;;;1999.90;999.90;;;;;;;7.75;100.00;98343.19;5077827;28;20009;-83
2022/12/29 11:18:33;;;;;;;1999.90;999.90;;;;;;;7.76;100.00;98336.69;5077223;28;20029;-83
2022/12/29 11:21:01;;;;;;;1999.90;999.90;;;;;;;7.83;100.00;98334.53;5077823;28;20032;-78
2022/12/29 11:23:34;;;;;;;1999.90;999.90;;;;;;;8.03;100.00;98340.00;5077325;28;20103;-78
2022/12/29 11:26:19;;;;;;;1999.90;999.90;;;;;;;8.11;100.00;98342.22;5073207;28;20067;-78
2022/12/29 11:28:47;;;;;;;1999.90;999.90;;;;;;;7.94;100.00;98341.63;5073497;28;20153;-82
2022/12/29 11:31:17;;;;;;;1999.90;999.90;;;;;;;8.12;100.00;98326.66;5074316;28;20032;-79
2022/12/29 11:33:43;;;;;;;1999.90;999.90;;;;;;;8.59;100.00;98309.00;5074060;28;20035;-90
2022/12/29 11:36:17;;;;;;;1999.90;999.90;;;;;;;8.67;100.00;98317.75;5070243;28;20032;-81
2022/12/29 11:38:49;;;;;;;1999.90;999.90;;;;;;;8.60;100.00;98313.38;5079344;28;20052;-80
2022/12/29 11:41:24;;;;;;;1999.90;999.90;;;;;;;8.36;100.00;98323.22;5060719;28;20866;-79
2022/12/29 11:43:50;;;;;;;1999.90;999.90;;;;;;;8.29;100.00;98322.66;5073169;28;20028;-79
2022/12/29 11:46:20;;;;;;;1999.90;999.90;;;;;;;8.14;100.00;98309.00;5085927;28;20031;-81